Midway, North Carolina
Current Conditions -  °F | °C
As of 11:15 AM on Sunday 23 Nov 2014 (Local Time) from KSIF Reporting Station
Overcast Overcast  
Wind Chill: 46°   Ceiling: 1300
Heat Index: 46°   Visibility: 10mi
Dew Point: 30°   Wind: 3mph
Humidity: 53%   Direction: 200°SSW
Pressure: 30.2"   Gusts: NA
Location:  36.3355°N, 79.6561°W
Report Text: KSIF 231615Z AUTO 20003KT 10SM OVC013 08/M01 A3020 RMK AO2 T00801010
Loading
Personal Weather Stations






























Interactive Weather Map New forecast layout! Learn more

10-Day Weather Forecast

Advertisements
Track Severe Weather on mobile